createdAt,value
2023-01-06T00:00:43.295Z,78.55
2023-01-06T00:01:43.251Z,78.45
2023-01-06T00:02:43.306Z,78.35
2023-01-06T00:03:43.240Z,78.24
2023-01-06T00:04:43.399Z,78.14
2023-01-06T00:05:43.198Z,78.14
2023-01-06T00:06:43.197Z,78.14
2023-01-06T00:07:43.180Z,78.04
2023-01-06T00:08:43.172Z,77.73
2023-01-06T00:09:43.162Z,77.52
2023-01-06T00:10:43.149Z,77.42
2023-01-06T00:11:43.148Z,77.52
2023-01-06T00:12:43.125Z,77.66
2023-01-06T00:13:43.108Z,77.63
2023-01-06T00:14:43.125Z,77.63
2023-01-06T00:15:43.105Z,77.52
2023-01-06T00:16:43.080Z,77.42
2023-01-06T00:17:43.072Z,77.31
2023-01-06T00:18:43.051Z,77.42
2023-01-06T00:19:43.047Z,77.21
2023-01-06T00:20:43.151Z,77.21
2023-01-06T00:21:43.037Z,77.21
2023-01-06T00:22:43.006Z,77.21
2023-01-06T00:23:42.994Z,77.21
2023-01-06T00:24:42.990Z,77.11
2023-01-06T00:25:42.970Z,77.21
2023-01-06T00:26:42.970Z,77.31
2023-01-06T00:27:42.955Z,77.42
2023-01-06T00:28:42.946Z,77.42
2023-01-06T00:29:42.932Z,77.52
2023-01-06T00:30:42.968Z,77.52
2023-01-06T00:31:42.913Z,77.63
2023-01-06T00:32:42.897Z,77.52
2023-01-06T00:33:42.930Z,77.42
2023-01-06T00:34:42.878Z,77.31
2023-01-06T00:35:42.862Z,77.31
2023-01-06T00:36:42.965Z,77.42
2023-01-06T00:37:42.847Z,77.52
2023-01-06T00:38:42.838Z,77.63
2023-01-06T00:39:42.832Z,77.63
2023-01-06T00:40:42.824Z,77.73
2023-01-06T00:41:42.808Z,77.83
2023-01-06T00:42:42.793Z,77.94
2023-01-06T00:43:42.773Z,77.94
2023-01-06T00:44:42.774Z,78.04
2023-01-06T00:45:42.749Z,78.04
2023-01-06T00:46:42.757Z,78.04
2023-01-06T00:47:42.732Z,78.14
2023-01-06T00:48:52.961Z,78.17
2023-01-06T00:49:42.709Z,78.17
2023-01-06T00:50:42.701Z,78.28
2023-01-06T00:51:42.703Z,78.04
2023-01-06T00:52:42.804Z,77.83
2023-01-06T00:53:42.662Z,77.73
2023-01-06T00:54:42.657Z,77.73
2023-01-06T00:55:42.649Z,77.73
2023-01-06T00:56:42.632Z,77.63
2023-01-06T00:57:42.621Z,77.63
2023-01-06T00:58:42.617Z,77.73
2023-01-06T00:59:42.592Z,77.87
2023-01-06T01:00:42.584Z,77.97
2023-01-06T01:01:42.731Z,78.07
2023-01-06T01:02:42.715Z,78.17
2023-01-06T01:03:42.568Z,78.17
2023-01-06T01:04:42.558Z,78.17
2023-01-06T01:05:42.529Z,78.28
2023-01-06T01:06:42.520Z,78.24
2023-01-06T01:07:42.526Z,78.35
2023-01-06T01:08:42.614Z,78.24
2023-01-06T01:09:42.487Z,78.14
2023-01-06T01:10:42.479Z,78.14
2023-01-06T01:11:42.459Z,78.04
2023-01-06T01:12:42.458Z,78.04
2023-01-06T01:13:42.435Z,78.28
2023-01-06T01:14:42.437Z,78.35
2023-01-06T01:15:42.549Z,78.35
2023-01-06T01:16:42.402Z,78.24
2023-01-06T01:17:42.393Z,78.14
2023-01-06T01:18:42.387Z,78.04
2023-01-06T01:19:42.382Z,78.14
2023-01-06T01:20:42.359Z,78.14
2023-01-06T01:21:42.371Z,78.14
2023-01-06T01:22:42.352Z,78.14
2023-01-06T01:23:42.323Z,78.14
2023-01-06T01:24:42.434Z,78.24
2023-01-06T01:25:42.306Z,78.24
2023-01-06T01:26:42.296Z,78.35
2023-01-06T01:27:42.286Z,78.35
2023-01-06T01:28:42.275Z,78.24
2023-01-06T01:29:42.264Z,78.14
2023-01-06T01:30:42.351Z,78.04
2023-01-06T01:31:42.260Z,78.04
2023-01-06T01:32:42.231Z,78.04
2023-01-06T01:33:42.215Z,78.04
2023-01-06T01:34:42.203Z,78.04
2023-01-06T01:35:42.192Z,78.00
2023-01-06T01:36:42.224Z,77.90
2023-01-06T01:37:42.173Z,77.80
2023-01-06T01:38:42.165Z,77.80
2023-01-06T01:39:42.153Z,77.69
2023-01-06T01:40:42.250Z,77.83
2023-01-06T01:41:42.141Z,77.83
2023-01-06T01:42:42.121Z,78.04
2023-01-06T01:43:42.106Z,78.14
2023-01-06T01:44:42.107Z,78.14
2023-01-06T01:45:42.080Z,78.14
2023-01-06T01:46:42.073Z,78.14
2023-01-06T01:47:42.059Z,78.14
2023-01-06T01:48:42.051Z,78.14
2023-01-06T01:49:42.039Z,78.24
2023-01-06T01:50:44.098Z,78.24
2023-01-06T01:51:42.014Z,78.38
2023-01-06T01:52:42.012Z,78.45
2023-01-06T01:53:41.997Z,78.45
2023-01-06T01:54:41.979Z,78.35
2023-01-06T01:55:41.974Z,78.38
2023-01-06T01:56:42.089Z,78.49
2023-01-06T01:57:41.946Z,78.69
2023-01-06T01:58:41.935Z,78.69
2023-01-06T01:59:41.933Z,78.76
2023-01-06T02:00:41.926Z,78.45
2023-01-06T02:01:42.012Z,78.14
2023-01-06T02:02:42.015Z,78.14
2023-01-06T02:03:41.882Z,78.24
2023-01-06T02:04:41.953Z,78.14
2023-01-06T02:05:41.879Z,78.35
2023-01-06T02:06:41.853Z,78.38
2023-01-06T02:07:41.845Z,78.59
2023-01-06T02:08:41.834Z,78.90
2023-01-06T02:09:41.815Z,78.90
2023-01-06T02:10:41.811Z,78.90
2023-01-06T02:11:41.801Z,79.11
2023-01-06T02:12:41.922Z,79.11
2023-01-06T02:13:41.780Z,79.07
2023-01-06T02:14:41.771Z,79.07
2023-01-06T02:15:41.887Z,79.01
2023-01-06T02:16:41.745Z,79.11
2023-01-06T02:17:41.727Z,79.07
2023-01-06T02:18:41.723Z,78.86
2023-01-06T02:19:41.705Z,78.86
2023-01-06T02:20:41.706Z,78.76
2023-01-06T02:21:41.698Z,78.76
2023-01-06T02:22:41.681Z,78.76
2023-01-06T02:23:41.680Z,78.76
2023-01-06T02:24:41.657Z,78.66
2023-01-06T02:25:41.645Z,78.66
2023-01-06T02:26:41.638Z,78.66
2023-01-06T02:27:41.629Z,78.59
2023-01-06T02:28:41.731Z,78.69
2023-01-06T02:29:41.601Z,78.69
2023-01-06T02:30:41.595Z,78.90
2023-01-06T02:31:41.585Z,79.11
2023-01-06T02:32:41.581Z,79.01
2023-01-06T02:33:41.557Z,79.01
2023-01-06T02:34:41.551Z,79.01
2023-01-06T02:35:41.533Z,78.76
2023-01-06T02:36:41.525Z,78.45
2023-01-06T02:37:41.510Z,78.49
2023-01-06T02:38:41.509Z,78.59
2023-01-06T02:39:41.498Z,78.69
2023-01-06T02:40:41.490Z,79.01
2023-01-06T02:41:41.468Z,79.01
2023-01-06T02:42:41.470Z,79.01
2023-01-06T02:43:41.447Z,79.21
2023-01-06T02:44:41.552Z,79.45
2023-01-06T02:45:41.426Z,79.55
2023-01-06T02:46:41.493Z,79.66
2023-01-06T02:47:41.396Z,79.87
2023-01-06T02:48:41.384Z,79.87
2023-01-06T02:49:41.384Z,79.97
2023-01-06T02:50:41.380Z,80.07
2023-01-06T02:51:41.361Z,80.18
2023-01-06T02:52:41.358Z,80.21
2023-01-06T02:53:41.344Z,80.32
2023-01-06T02:54:41.326Z,80.38
2023-01-06T02:55:41.322Z,80.38
2023-01-06T02:56:41.304Z,80.18
2023-01-06T02:57:41.297Z,80.07
2023-01-06T02:58:41.285Z,79.97
2023-01-06T02:59:41.282Z,80.07
2023-01-06T03:00:41.378Z,80.07
2023-01-06T03:01:41.312Z,80.07
2023-01-06T03:02:41.239Z,80.07
2023-01-06T03:03:41.224Z,80.07
2023-01-06T03:04:41.253Z,80.18
2023-01-06T03:05:41.198Z,80.18
2023-01-06T03:06:41.189Z,80.18
2023-01-06T03:07:41.178Z,80.38
2023-01-06T03:08:41.182Z,80.38
2023-01-06T03:09:41.166Z,79.93
2023-01-06T03:10:41.160Z,79.83
2023-01-06T03:11:41.151Z,79.83
2023-01-06T03:12:41.129Z,79.83
2023-01-06T03:13:41.126Z,79.83
2023-01-06T03:14:41.212Z,79.83
2023-01-06T03:15:41.093Z,79.73
2023-01-06T03:16:41.200Z,79.76
2023-01-06T03:17:41.080Z,79.87
2023-01-06T03:18:41.064Z,79.97
2023-01-06T03:19:41.074Z,80.07
2023-01-06T03:20:41.053Z,80.18
2023-01-06T03:21:41.036Z,80.28
2023-01-06T03:22:41.022Z,80.18
2023-01-06T03:23:41.001Z,80.28
2023-01-06T03:24:41.000Z,80.38
2023-01-06T03:25:40.985Z,80.49
2023-01-06T03:26:40.985Z,80.59
2023-01-06T03:27:40.968Z,80.24
2023-01-06T03:28:40.952Z,79.93
2023-01-06T03:29:40.954Z,79.83
2023-01-06T03:30:40.940Z,79.83
2023-01-06T03:31:40.933Z,79.73
2023-01-06T03:32:41.036Z,79.83
2023-01-06T03:33:40.907Z,79.62
2023-01-06T03:34:40.888Z,79.52
2023-01-06T03:35:40.869Z,79.62
2023-01-06T03:36:40.872Z,79.76
2023-01-06T03:37:40.851Z,79.97
2023-01-06T03:38:40.838Z,79.97
2023-01-06T03:39:40.853Z,79.97
2023-01-06T03:40:40.840Z,80.07
2023-01-06T03:41:40.811Z,80.18
2023-01-06T03:42:40.799Z,80.38
2023-01-06T03:43:40.782Z,80.38
2023-01-06T03:44:40.781Z,80.49
2023-01-06T03:45:40.773Z,80.49
2023-01-06T03:46:40.810Z,80.49
2023-01-06T03:47:40.746Z,80.49
2023-01-06T03:48:40.879Z,80.49
2023-01-06T03:49:40.722Z,80.38
2023-01-06T03:50:40.710Z,80.49
2023-01-06T03:51:40.696Z,80.38
2023-01-06T03:52:40.686Z,80.38
2023-01-06T03:53:40.681Z,80.49
2023-01-06T03:54:40.661Z,80.59
2023-01-06T03:55:40.658Z,80.59
2023-01-06T03:56:40.648Z,80.49
2023-01-06T03:57:40.629Z,80.49
2023-01-06T03:58:40.615Z,80.49
2023-01-06T03:59:40.609Z,80.49
2023-01-06T04:00:40.643Z,80.49
2023-01-06T04:01:40.628Z,80.59
2023-01-06T04:02:40.573Z,80.49
2023-01-06T04:03:40.610Z,80.38
2023-01-06T04:04:40.680Z,80.49
2023-01-06T04:05:40.546Z,80.49
2023-01-06T04:06:40.548Z,80.45
2023-01-06T04:07:40.523Z,80.35
2023-01-06T04:08:40.503Z,80.38
2023-01-06T04:09:40.498Z,80.49
2023-01-06T04:10:40.496Z,80.59
2023-01-06T04:11:40.479Z,80.80
2023-01-06T04:12:40.482Z,80.65
2023-01-06T04:13:40.453Z,80.70
2023-01-06T04:14:40.440Z,80.80
2023-01-06T04:15:40.432Z,80.90
2023-01-06T04:16:40.421Z,81.00
2023-01-06T04:17:40.412Z,81.10
2023-01-06T04:18:40.398Z,80.96
2023-01-06T04:19:40.408Z,80.76
2023-01-06T04:20:40.505Z,80.76
2023-01-06T04:21:40.375Z,80.86
2023-01-06T04:22:40.370Z,80.76
2023-01-06T04:23:40.338Z,80.76
2023-01-06T04:24:40.339Z,81.00
2023-01-06T04:25:40.324Z,81.21
2023-01-06T04:26:40.308Z,81.31
2023-01-06T04:27:40.298Z,81.42
2023-01-06T04:28:40.285Z,81.52
2023-01-06T04:29:40.271Z,81.42
2023-01-06T04:30:40.263Z,81.52
2023-01-06T04:31:40.301Z,81.52
2023-01-06T04:32:40.242Z,81.52
2023-01-06T04:33:40.236Z,81.52
2023-01-06T04:34:40.220Z,81.52
2023-01-06T04:35:40.209Z,81.48
2023-01-06T04:36:40.320Z,81.38
2023-01-06T04:37:40.193Z,81.38
2023-01-06T04:38:40.173Z,81.52
2023-01-06T04:39:40.169Z,81.73
2023-01-06T04:40:40.153Z,81.73
2023-01-06T04:41:40.141Z,81.73
2023-01-06T04:42:40.128Z,81.93
2023-01-06T04:43:40.119Z,82.04
2023-01-06T04:44:40.101Z,82.04
2023-01-06T04:45:40.144Z,81.93
2023-01-06T04:46:40.086Z,81.79
2023-01-06T04:47:40.067Z,81.69
2023-01-06T04:48:40.061Z,81.59
2023-01-06T04:49:40.049Z,81.69
2023-01-06T04:50:40.055Z,81.69
2023-01-06T04:51:40.059Z,81.73
2023-01-06T04:52:40.144Z,81.93
2023-01-06T04:53:40.018Z,81.90
2023-01-06T04:54:39.990Z,81.79
2023-01-06T04:55:39.987Z,81.69
2023-01-06T04:56:39.977Z,81.59
2023-01-06T04:57:39.957Z,81.69
2023-01-06T04:58:39.953Z,81.59
2023-01-06T04:59:39.939Z,81.69
2023-01-06T05:00:39.970Z,81.69
2023-01-06T05:01:40.003Z,81.69
2023-01-06T05:02:39.909Z,81.79
2023-01-06T05:03:40.006Z,81.90
2023-01-06T05:04:47.347Z,81.90
2023-01-06T05:05:39.876Z,82.20
2023-01-06T05:06:39.868Z,82.10
2023-01-06T05:07:39.850Z,82.20
2023-01-06T05:08:39.964Z,82.20
2023-01-06T05:09:39.841Z,82.20
2023-01-06T05:10:39.828Z,82.31
2023-01-06T05:11:39.834Z,82.31
2023-01-06T05:12:39.792Z,82.45
2023-01-06T05:13:39.792Z,82.55
2023-01-06T05:14:39.780Z,82.62
2023-01-06T05:15:39.757Z,82.62
2023-01-06T05:16:39.892Z,82.72
2023-01-06T05:17:39.734Z,82.65
2023-01-06T05:18:39.742Z,82.97
2023-01-06T05:19:39.713Z,82.93
2023-01-06T05:20:39.710Z,82.93
2023-01-06T05:21:39.702Z,82.93
2023-01-06T05:22:39.690Z,82.93
2023-01-06T05:23:39.674Z,82.72
2023-01-06T05:24:39.787Z,82.83
2023-01-06T05:25:39.647Z,82.93
2023-01-06T05:26:39.648Z,82.93
2023-01-06T05:27:39.630Z,83.14
2023-01-06T05:28:39.621Z,83.14
2023-01-06T05:29:39.635Z,82.93
2023-01-06T05:30:39.594Z,82.93
2023-01-06T05:31:39.627Z,82.83
2023-01-06T05:32:39.581Z,82.72
2023-01-06T05:33:39.568Z,82.62
2023-01-06T05:34:39.554Z,82.72
2023-01-06T05:35:39.542Z,82.83
2023-01-06T05:36:39.520Z,82.93
2023-01-06T05:37:39.567Z,82.93
2023-01-06T05:38:39.549Z,83.03
2023-01-06T05:39:39.496Z,83.34
2023-01-06T05:40:39.603Z,83.34
2023-01-06T05:41:39.484Z,83.34
2023-01-06T05:42:39.464Z,83.44
2023-01-06T05:43:39.450Z,83.44
2023-01-06T05:44:39.441Z,83.55
2023-01-06T05:45:39.467Z,83.55
2023-01-06T05:46:39.411Z,83.65
2023-01-06T05:47:39.413Z,83.65
2023-01-06T05:48:39.395Z,83.75
2023-01-06T05:49:39.390Z,83.86
2023-01-06T05:50:39.375Z,83.96
2023-01-06T05:51:39.386Z,84.06
2023-01-06T05:52:39.349Z,84.06
2023-01-06T05:53:39.345Z,83.96
2023-01-06T05:54:39.335Z,83.86
2023-01-06T05:55:39.332Z,83.86
2023-01-06T05:56:39.440Z,84.06
2023-01-06T05:57:39.307Z,84.38
2023-01-06T05:58:39.282Z,84.58
2023-01-06T05:59:39.275Z,84.89
2023-01-06T06:00:39.263Z,84.99
2023-01-06T06:01:39.327Z,85.10
2023-01-06T06:02:39.253Z,85.20
2023-01-06T06:03:39.295Z,85.10
2023-01-06T06:04:39.231Z,85.20
2023-01-06T06:05:39.310Z,85.30
2023-01-06T06:06:39.197Z,85.51
2023-01-06T06:07:39.203Z,85.51
2023-01-06T06:08:39.183Z,85.62
2023-01-06T06:09:39.162Z,85.62
2023-01-06T06:10:39.151Z,85.72
2023-01-06T06:11:39.137Z,85.82
2023-01-06T06:12:39.256Z,85.93
2023-01-06T06:13:39.123Z,86.13
2023-01-06T06:14:39.108Z,86.02
2023-01-06T06:15:39.098Z,86.13
2023-01-06T06:16:39.149Z,86.23
2023-01-06T06:17:39.096Z,86.23
2023-01-06T06:18:39.077Z,86.44
2023-01-06T06:19:39.060Z,86.65
2023-01-06T06:20:39.054Z,86.75
2023-01-06T06:21:39.030Z,86.65
2023-01-06T06:22:39.030Z,86.75
2023-01-06T06:23:39.016Z,86.54
2023-01-06T06:24:39.024Z,86.44
2023-01-06T06:25:38.988Z,86.44
2023-01-06T06:26:38.982Z,86.54
2023-01-06T06:27:38.965Z,86.54
2023-01-06T06:28:39.107Z,86.60
2023-01-06T06:29:39.020Z,86.60
2023-01-06T06:30:38.928Z,86.71
2023-01-06T06:31:39.033Z,86.85
2023-01-06T06:32:38.913Z,87.06
2023-01-06T06:33:38.900Z,87.26
2023-01-06T06:34:38.889Z,87.47
2023-01-06T06:35:38.909Z,87.68
2023-01-06T06:36:38.861Z,87.89
2023-01-06T06:37:38.857Z,88.20
2023-01-06T06:38:38.872Z,88.30
2023-01-06T06:39:38.835Z,88.51
2023-01-06T06:40:38.821Z,88.61
2023-01-06T06:41:38.825Z,88.71
2023-01-06T06:42:38.795Z,88.71
2023-01-06T06:43:38.786Z,88.81
2023-01-06T06:44:38.802Z,89.02
2023-01-06T06:45:38.802Z,89.12
2023-01-06T06:46:38.762Z,89.33
2023-01-06T06:47:38.746Z,89.44
2023-01-06T06:48:38.751Z,89.54
2023-01-06T06:49:38.725Z,89.54
2023-01-06T06:50:38.707Z,89.54
2023-01-06T06:51:38.705Z,89.64
2023-01-06T06:52:38.687Z,89.75
2023-01-06T06:53:38.687Z,89.81
2023-01-06T06:54:38.680Z,89.70
2023-01-06T06:55:38.654Z,89.81
2023-01-06T06:56:38.640Z,89.91
2023-01-06T06:57:38.632Z,90.02
2023-01-06T06:58:38.622Z,90.02
2023-01-06T06:59:38.609Z,90.02
2023-01-06T07:00:38.732Z,90.11
2023-01-06T07:01:38.697Z,90.22
2023-01-06T07:02:38.600Z,90.47
2023-01-06T07:03:38.578Z,90.57
2023-01-06T07:04:38.598Z,90.67
2023-01-06T07:05:38.555Z,90.74
2023-01-06T07:06:38.531Z,90.88
2023-01-06T07:07:38.529Z,91.09
2023-01-06T07:08:38.511Z,91.15
2023-01-06T07:09:38.507Z,91.25
2023-01-06T07:10:38.500Z,91.25
2023-01-06T07:11:38.485Z,91.25
2023-01-06T07:12:38.476Z,91.35
2023-01-06T07:13:38.451Z,91.25
2023-01-06T07:14:38.456Z,91.25
2023-01-06T07:15:38.468Z,91.35
2023-01-06T07:16:38.544Z,91.46
2023-01-06T07:17:38.407Z,91.56
2023-01-06T07:18:38.407Z,91.56
2023-01-06T07:19:38.391Z,91.77
2023-01-06T07:20:38.386Z,91.77
2023-01-06T07:21:38.368Z,91.87
2023-01-06T07:22:38.353Z,91.87
2023-01-06T07:23:38.349Z,91.87
2023-01-06T07:24:38.340Z,91.97
2023-01-06T07:25:38.325Z,92.08
2023-01-06T07:26:38.321Z,92.18
2023-01-06T07:27:38.308Z,92.29
2023-01-06T07:28:38.292Z,92.29
2023-01-06T07:29:38.276Z,92.29
2023-01-06T07:30:38.301Z,92.29
2023-01-06T07:31:38.262Z,92.39
2023-01-06T07:32:38.373Z,92.45
2023-01-06T07:33:38.239Z,92.35
2023-01-06T07:34:38.225Z,92.39
2023-01-06T07:35:38.211Z,92.49
2023-01-06T07:36:38.211Z,92.70
2023-01-06T07:37:38.187Z,92.70
2023-01-06T07:38:38.195Z,92.80
2023-01-06T07:39:38.174Z,92.90
2023-01-06T07:40:38.169Z,93.01
2023-01-06T07:41:38.154Z,93.01
2023-01-06T07:42:38.146Z,92.96
2023-01-06T07:43:38.122Z,92.96
2023-01-06T07:44:38.133Z,92.96
2023-01-06T07:45:38.110Z,93.07
2023-01-06T07:46:38.095Z,93.07
2023-01-06T07:47:38.097Z,93.17
2023-01-06T07:48:38.196Z,93.28
2023-01-06T07:49:38.058Z,93.38
2023-01-06T07:50:38.046Z,93.48
2023-01-06T07:51:38.045Z,93.48
2023-01-06T07:52:38.023Z,93.48
2023-01-06T07:53:38.014Z,93.38
2023-01-06T07:54:38.017Z,93.48
2023-01-06T07:55:38.005Z,93.58
2023-01-06T07:56:37.982Z,93.58
2023-01-06T07:57:38.186Z,93.58
2023-01-06T07:58:37.959Z,93.68
2023-01-06T07:59:37.953Z,93.79
2023-01-06T08:00:37.948Z,93.79
2023-01-06T08:01:38.099Z,93.79
2023-01-06T08:02:38.109Z,93.79
2023-01-06T08:03:37.902Z,93.79
2023-01-06T08:04:38.032Z,93.79
2023-01-06T08:05:37.893Z,93.89
2023-01-06T08:06:37.871Z,93.85
2023-01-06T08:07:37.863Z,93.89
2023-01-06T08:08:37.853Z,93.85
2023-01-06T08:09:37.840Z,93.85
2023-01-06T08:10:37.828Z,93.85
2023-01-06T08:11:37.826Z,93.85
2023-01-06T08:12:37.808Z,93.85
2023-01-06T08:13:37.794Z,93.75
2023-01-06T08:14:37.783Z,93.85
2023-01-06T08:15:37.836Z,93.85
2023-01-06T08:16:37.760Z,93.85
2023-01-06T08:17:37.759Z,93.85
2023-01-06T08:18:37.740Z,93.85
2023-01-06T08:19:37.721Z,93.95
2023-01-06T08:20:37.839Z,94.06
2023-01-06T08:21:37.713Z,94.06
2023-01-06T08:22:37.692Z,94.06
2023-01-06T08:23:37.695Z,94.16
2023-01-06T08:24:37.669Z,94.16
2023-01-06T08:25:37.663Z,94.16
2023-01-06T08:26:37.655Z,94.16
2023-01-06T08:27:37.632Z,94.16
2023-01-06T08:28:37.637Z,94.16
2023-01-06T08:29:37.617Z,94.16
2023-01-06T08:30:37.601Z,94.26
2023-01-06T08:31:37.689Z,94.26
2023-01-06T08:32:37.575Z,94.26
2023-01-06T08:33:37.564Z,94.22
2023-01-06T08:34:37.588Z,94.12
2023-01-06T08:35:37.547Z,94.22
2023-01-06T08:36:37.648Z,94.12
2023-01-06T08:37:37.522Z,94.01
2023-01-06T08:38:37.515Z,93.91
2023-01-06T08:39:37.513Z,93.91
2023-01-06T08:40:37.484Z,93.81
2023-01-06T08:41:37.490Z,93.81
2023-01-06T08:42:37.474Z,93.81
2023-01-06T08:43:37.493Z,93.81
2023-01-06T08:44:37.444Z,93.81
2023-01-06T08:45:37.450Z,93.81
2023-01-06T08:46:37.482Z,93.81
2023-01-06T08:47:37.417Z,93.81
2023-01-06T08:48:37.432Z,93.81
2023-01-06T08:49:37.401Z,93.81
2023-01-06T08:50:37.382Z,93.91
2023-01-06T08:51:37.369Z,93.91
2023-01-06T08:52:37.554Z,93.91
2023-01-06T08:53:37.355Z,94.01
2023-01-06T08:54:37.336Z,94.01
2023-01-06T08:55:37.341Z,93.87
2023-01-06T08:56:37.311Z,93.87
2023-01-06T08:57:37.314Z,93.76
2023-01-06T08:58:37.285Z,93.66
2023-01-06T08:59:37.280Z,93.66
2023-01-06T09:00:37.269Z,93.66
2023-01-06T09:01:37.407Z,93.66
2023-01-06T09:02:37.243Z,93.66
2023-01-06T09:03:37.241Z,93.66
2023-01-06T09:04:37.248Z,93.76
2023-01-06T09:05:37.214Z,93.76
2023-01-06T09:06:37.199Z,93.76
2023-01-06T09:07:37.193Z,93.76
2023-01-06T09:08:37.304Z,93.66
2023-01-06T09:09:37.168Z,93.66
2023-01-06T09:10:37.164Z,93.66
2023-01-06T09:11:37.145Z,93.56
2023-01-06T09:12:37.140Z,93.62
2023-01-06T09:13:37.130Z,93.51
2023-01-06T09:14:37.110Z,93.51
2023-01-06T09:15:37.101Z,93.51
2023-01-06T09:16:37.087Z,93.62
2023-01-06T09:17:37.084Z,93.51
2023-01-06T09:18:37.110Z,93.41
2023-01-06T09:19:37.065Z,93.41
2023-01-06T09:20:37.038Z,93.31
2023-01-06T09:21:37.029Z,93.31
2023-01-06T09:22:37.027Z,93.31
2023-01-06T09:23:37.002Z,93.31
2023-01-06T09:24:37.116Z,93.51
2023-01-06T09:25:36.986Z,93.62
2023-01-06T09:26:36.976Z,93.72
2023-01-06T09:27:36.958Z,93.82
2023-01-06T09:28:36.947Z,93.93
2023-01-06T09:29:36.933Z,94.03
2023-01-06T09:30:36.935Z,94.13
2023-01-06T09:31:36.977Z,94.19
2023-01-06T09:32:36.902Z,94.19
2023-01-06T09:33:36.909Z,94.19
2023-01-06T09:34:36.876Z,94.19
2023-01-06T09:35:36.876Z,94.09
2023-01-06T09:36:36.857Z,94.19
2023-01-06T09:37:36.862Z,94.09
2023-01-06T09:38:36.845Z,94.04
2023-01-06T09:39:36.825Z,94.04
2023-01-06T09:40:36.837Z,93.94
2023-01-06T09:41:36.818Z,93.94
2023-01-06T09:42:36.783Z,93.84
2023-01-06T09:43:36.786Z,93.73
2023-01-06T09:44:36.773Z,93.73
2023-01-06T09:45:36.759Z,93.84
2023-01-06T09:46:36.818Z,93.84
2023-01-06T09:47:36.738Z,93.73
2023-01-06T09:48:36.721Z,93.73
2023-01-06T09:49:36.707Z,93.73
2023-01-06T09:50:36.695Z,93.64
2023-01-06T09:51:36.691Z,93.73
2023-01-06T09:52:36.683Z,93.73
2023-01-06T09:53:36.655Z,93.84
2023-01-06T09:54:36.649Z,93.73
2023-01-06T09:55:36.643Z,93.84
2023-01-06T09:56:36.763Z,93.84
2023-01-06T09:57:36.607Z,93.84
2023-01-06T09:58:36.597Z,94.04
2023-01-06T09:59:36.589Z,94.15
2023-01-06T10:00:36.584Z,94.36
2023-01-06T10:01:36.693Z,94.36
2023-01-06T10:02:36.555Z,94.41
2023-01-06T10:03:36.578Z,94.41
2023-01-06T10:04:36.536Z,94.31
2023-01-06T10:05:36.517Z,94.31
2023-01-06T10:06:36.511Z,94.41
2023-01-06T10:07:36.501Z,94.31
2023-01-06T10:08:36.489Z,94.41
2023-01-06T10:09:36.474Z,94.51
2023-01-06T10:10:36.473Z,94.47
2023-01-06T10:11:36.442Z,94.37
2023-01-06T10:12:36.466Z,94.37
2023-01-06T10:13:36.429Z,94.37
2023-01-06T10:14:36.416Z,94.26
2023-01-06T10:15:36.410Z,94.16
2023-01-06T10:16:36.508Z,93.96
2023-01-06T10:17:36.379Z,93.96
2023-01-06T10:18:36.373Z,94.06
2023-01-06T10:19:36.366Z,94.06
2023-01-06T10:20:36.348Z,94.06
2023-01-06T10:21:36.332Z,93.92
2023-01-06T10:22:36.328Z,93.92
2023-01-06T10:23:36.320Z,93.92
2023-01-06T10:24:36.309Z,93.81
2023-01-06T10:25:36.298Z,93.81
2023-01-06T10:26:36.282Z,93.81
2023-01-06T10:27:36.264Z,93.71
2023-01-06T10:28:36.412Z,93.71
2023-01-06T10:29:36.253Z,93.81
2023-01-06T10:30:40.201Z,93.81
2023-01-06T10:31:36.243Z,93.81
2023-01-06T10:32:36.216Z,93.81
2023-01-06T10:33:36.200Z,93.81
2023-01-06T10:34:36.190Z,93.92
2023-01-06T10:35:36.179Z,94.01
2023-01-06T10:36:36.171Z,94.12
2023-01-06T10:37:36.163Z,94.22
2023-01-06T10:38:36.144Z,94.22
2023-01-06T10:39:36.134Z,94.18
2023-01-06T10:40:36.123Z,94.07
2023-01-06T10:41:36.111Z,94.18
2023-01-06T10:42:36.108Z,94.18
2023-01-06T10:43:36.083Z,94.18
2023-01-06T10:44:36.254Z,94.18
2023-01-06T10:45:36.099Z,94.14
2023-01-06T10:46:36.195Z,94.14
2023-01-06T10:47:36.038Z,94.14
2023-01-06T10:48:36.045Z,94.14
2023-01-06T10:49:36.023Z,94.03
2023-01-06T10:50:36.061Z,93.93
2023-01-06T10:51:35.993Z,93.93
2023-01-06T10:52:35.982Z,93.93
2023-01-06T10:53:35.976Z,93.82
2023-01-06T10:54:35.965Z,93.82
2023-01-06T10:55:35.948Z,93.78
2023-01-06T10:56:35.936Z,93.68
2023-01-06T10:57:35.931Z,93.68
2023-01-06T10:58:36.009Z,93.68
2023-01-06T10:59:35.904Z,93.68
2023-01-06T11:00:36.023Z,93.68
2023-01-06T11:01:36.240Z,93.68
2023-01-06T11:02:36.137Z,93.78
2023-01-06T11:03:35.964Z,93.78
2023-01-06T11:04:35.860Z,93.68
2023-01-06T11:05:35.834Z,93.78
2023-01-06T11:06:35.829Z,93.78
2023-01-06T11:07:35.899Z,93.89
2023-01-06T11:08:35.808Z,93.89
2023-01-06T11:09:35.803Z,93.99
2023-01-06T11:10:35.787Z,93.84
2023-01-06T11:11:35.772Z,93.84
2023-01-06T11:12:35.773Z,93.84
2023-01-06T11:13:35.753Z,93.84
2023-01-06T11:14:35.741Z,93.84
2023-01-06T11:15:35.731Z,93.84
2023-01-06T11:16:36.017Z,93.84
2023-01-06T11:17:35.712Z,93.95
2023-01-06T11:18:35.695Z,93.95
2023-01-06T11:19:35.735Z,93.95
2023-01-06T11:20:35.687Z,93.95
2023-01-06T11:21:35.656Z,94.04
2023-01-06T11:22:35.906Z,94.04
2023-01-06T11:23:35.638Z,94.04
2023-01-06T11:24:35.629Z,94.15
2023-01-06T11:25:35.612Z,94.15
2023-01-06T11:26:35.604Z,94.04
2023-01-06T11:27:35.601Z,94.15
2023-01-06T11:28:35.613Z,94.15
2023-01-06T11:29:35.574Z,94.25
2023-01-06T11:30:35.579Z,94.25
2023-01-06T11:31:35.651Z,94.25
2023-01-06T11:32:35.651Z,94.25
2023-01-06T11:33:35.524Z,94.25
2023-01-06T11:34:35.515Z,94.25
2023-01-06T11:35:35.519Z,94.21
2023-01-06T11:36:35.500Z,94.25
2023-01-06T11:37:35.487Z,94.21
2023-01-06T11:38:35.476Z,94.21
2023-01-06T11:39:35.466Z,94.21
2023-01-06T11:40:35.454Z,94.21
2023-01-06T11:41:35.454Z,94.21
2023-01-06T11:42:35.423Z,94.11
2023-01-06T11:43:35.408Z,94.11
2023-01-06T11:44:35.407Z,94.11
2023-01-06T11:45:35.464Z,94.11
2023-01-06T11:46:35.377Z,94.11
2023-01-06T11:47:35.367Z,94.11
2023-01-06T11:48:35.483Z,94.11
2023-01-06T11:49:35.349Z,93.96
2023-01-06T11:50:35.329Z,93.85
2023-01-06T11:51:35.327Z,93.75
2023-01-06T11:52:35.355Z,93.55
2023-01-06T11:53:35.304Z,93.55
2023-01-06T11:55:08.728Z,93.45
2023-01-06T11:56:08.709Z,93.24
2023-01-06T11:57:08.695Z,93.24
2023-01-06T11:58:08.704Z,93.14
2023-01-06T11:59:08.685Z,93.14
2023-01-06T12:00:08.665Z,93.14
2023-01-06T12:01:08.699Z,93.10
2023-01-06T12:02:08.678Z,92.99
2023-01-06T12:03:14.747Z,92.99
2023-01-06T12:04:08.733Z,92.99
2023-01-06T12:05:08.611Z,92.99
2023-01-06T12:06:08.612Z,92.99
2023-01-06T12:07:08.597Z,92.99
2023-01-06T12:08:08.578Z,92.89
2023-01-06T12:09:08.570Z,92.89
2023-01-06T12:10:08.551Z,92.89
2023-01-06T12:11:08.550Z,92.79
2023-01-06T12:12:08.533Z,92.79
2023-01-06T12:13:08.520Z,92.64
2023-01-06T12:14:23.219Z,92.64
2023-01-06T12:15:08.502Z,92.54
2023-01-06T12:16:08.486Z,92.54
2023-01-06T12:17:08.716Z,92.54
2023-01-06T12:18:08.462Z,92.54
2023-01-06T12:19:08.485Z,92.54
2023-01-06T12:20:08.560Z,92.44
2023-01-06T12:21:08.431Z,92.44
2023-01-06T12:22:08.426Z,92.34
2023-01-06T12:23:08.413Z,92.23
2023-01-06T12:24:08.391Z,92.23
2023-01-06T12:25:08.390Z,92.23
2023-01-06T12:26:08.366Z,92.13
2023-01-06T12:27:08.357Z,92.13
2023-01-06T12:28:08.351Z,92.13
2023-01-06T12:29:14.338Z,92.03
2023-01-06T12:30:08.328Z,91.93
2023-01-06T12:31:08.373Z,91.88
2023-01-06T12:32:08.301Z,91.88
2023-01-06T12:33:08.289Z,91.88
2023-01-06T12:34:08.285Z,91.78
2023-01-06T12:35:08.272Z,91.68
2023-01-06T12:36:08.376Z,91.58
2023-01-06T12:37:08.248Z,91.47
2023-01-06T12:38:08.257Z,91.37
2023-01-06T12:39:08.219Z,91.37
2023-01-06T12:40:08.217Z,91.22
2023-01-06T12:41:08.198Z,91.13
2023-01-06T12:42:08.220Z,91.02
2023-01-06T12:43:08.183Z,91.02
2023-01-06T12:44:08.175Z,90.92
2023-01-06T12:45:08.157Z,90.92
2023-01-06T12:46:08.192Z,90.82
2023-01-06T12:47:08.129Z,90.82
2023-01-06T12:48:08.132Z,90.82
2023-01-06T12:49:08.108Z,90.61
2023-01-06T12:50:08.093Z,90.51
2023-01-06T12:51:08.086Z,90.51
2023-01-06T12:52:08.198Z,90.41
2023-01-06T12:53:19.911Z,90.41